Lake Worth, FL

12:28 AM EDT on June 28, 2017 (GMT -0400)
Isles at Wellington - Windsor Bay | | Change Station

Elev 23 ft 26.61 °N, 80.23 °W | Updated 7 seconds ago

Mostly Cloudy
Mostly Cloudy
78.6 °F
Feels Like 81 °F
N
0.0
Wind Variable Wind from NE
Gusts 0.0 mph

Today
High -- | Low -- °F
--% Chance of Precip.
Yesterday
High -- | Low -- °F
Precip. -- in
Pressure 30.04 in
Visibility 10.0 miles
Clouds Scattered Clouds 3000 ft
Scattered Clouds 9000 ft
Mostly Cloudy 20000 ft
Heat Index 81 °F
Dew Point 72 °F
Humidity 80%
Rainfall 0.00 in
Snow Depth Not available.
6:30 AM 8:18 PM
Waxing Crescent, 22% visible
METAR KPBI 280353Z 00000KT 10SM SCT030 SCT090 BKN200 28/24 A3004 RMK AO2 SLP171 OCNL LTGIC DSNT NW CB DSNT NW T02830239
Pressure 30.04 in
Visibility 10.0 miles
Clouds Scattered Clouds 3000 ft
Scattered Clouds 9000 ft
Mostly Cloudy 20000 ft
Heat Index 81 °F
Dew Point 72 °F
Humidity 80%
Rainfall 0.00 in
Snow Depth Not available.
6:30 AM 8:18 PM
Waxing Crescent, 22% visible
METAR KPBI 280353Z 00000KT 10SM SCT030 SCT090 BKN200 28/24 A3004 RMK AO2 SLP171 OCNL LTGIC DSNT NW CB DSNT NW T02830239

Get Severe Weather Alerts

Thanks for signing up!

Be on the lookout for a verification email in your inbox.

You'll start receiving the daily forecast at 6 AM.

×

10-Day Weather Forecast

Almanac

Astronomy

Jun. 28, 2017 Rise Set
Actual Time
Civil Twilight
Nautical Twilight
Astronomical Twilight
Moon
Length of Visible Light
Length of Day
Tomorrow will be .
, % of the Moon is Illuminated

Today's Extremes

State Highs State Lows

Community

WunderPhotos

Category 6

Welcome to Category 6. This is the collective home for Weather Underground's featured writeups by Dr. Jeff Masters (right), Bob Henson (left), Chris Burt, and other regular contributors.

Nearby

Air Quality

  Air Quality AQ Index Pollutant
Not available.

Snow Depth

Station Depth Elevation

Earthquake Activity

City Distance Mag. Time & Date
Minimum magnitude displayed is 2.5.

Coastal Water Temperatures

Place Temperature

Stations

Nearby Weather Stations

Station Location Temp. Windchill Dew Point Humidity Wind Precip. Elev Updated Type
                   

Watches & Warnings

There are currently no watches in effect.